createdAt,value
2023-02-21T00:01:54.797Z,24.33
2023-02-21T00:04:21.395Z,24.42
2023-02-21T00:06:49.313Z,22.52
2023-02-21T00:09:15.921Z,22.40
2023-02-21T00:11:42.810Z,24.38
2023-02-21T00:14:09.511Z,23.70
2023-02-21T00:16:36.201Z,24.63
2023-02-21T00:19:03.208Z,23.27
2023-02-21T00:21:30.763Z,23.50
2023-02-21T00:23:58.758Z,23.75
2023-02-21T00:26:25.379Z,23.20
2023-02-21T00:28:52.015Z,23.60
2023-02-21T00:31:19.775Z,24.92
2023-02-21T00:33:46.418Z,24.13
2023-02-21T00:36:16.242Z,24.27
2023-02-21T00:38:42.887Z,24.77
2023-02-21T00:41:10.801Z,24.23
2023-02-21T00:43:37.433Z,24.38
2023-02-21T00:46:04.418Z,25.00
2023-02-21T00:48:31.881Z,24.80
2023-02-21T00:50:58.471Z,23.83
2023-02-21T00:53:25.633Z,24.67
2023-02-21T00:55:52.245Z,24.67
2023-02-21T00:58:22.251Z,24.50
2023-02-21T01:00:48.954Z,24.60
2023-02-21T01:03:15.624Z,24.13
2023-02-21T01:05:42.368Z,25.17
2023-02-21T01:08:09.369Z,25.52
2023-02-21T01:10:36.007Z,26.30
2023-02-21T01:13:04.580Z,27.25
2023-02-21T01:15:32.648Z,27.10
2023-02-21T01:17:59.351Z,25.13
2023-02-21T01:20:27.951Z,26.85
2023-02-21T01:22:54.640Z,26.42
2023-02-21T01:25:21.209Z,26.20
2023-02-21T01:27:47.964Z,26.02
2023-02-21T01:30:14.632Z,26.70
2023-02-21T01:32:42.608Z,25.80
2023-02-21T01:35:09.398Z,26.98
2023-02-21T01:37:36.042Z,27.90
2023-02-21T01:40:03.135Z,26.00
2023-02-21T01:42:29.807Z,25.80
2023-02-21T01:45:38.431Z,27.70
2023-02-21T01:48:07.475Z,27.98
2023-02-21T01:50:34.026Z,27.02
2023-02-21T01:53:03.922Z,26.77
2023-02-21T01:55:31.789Z,28.60
2023-02-21T01:57:58.595Z,28.75
2023-02-21T02:00:26.330Z,28.77
2023-02-21T02:02:56.658Z,29.70
2023-02-21T02:05:27.031Z,30.73
2023-02-21T02:07:54.344Z,30.73
2023-02-21T02:10:20.945Z,31.48
2023-02-21T02:13:06.573Z,30.63
2023-02-21T02:15:45.796Z,29.92
2023-02-21T02:18:34.388Z,29.35
2023-02-21T02:21:44.484Z,31.42
2023-02-21T02:24:49.099Z,29.55
2023-02-21T02:27:49.447Z,28.55
2023-02-21T02:30:52.482Z,26.30
2023-02-21T02:34:04.724Z,28.02
2023-02-21T02:36:39.476Z,25.80
2023-02-21T02:39:18.892Z,25.85
2023-02-21T02:41:52.746Z,25.33
2023-02-21T02:44:24.710Z,28.40
2023-02-21T02:46:55.267Z,27.80
2023-02-21T02:49:25.273Z,29.23
2023-02-21T02:51:53.761Z,29.92
2023-02-21T02:54:23.122Z,31.00
2023-02-21T02:56:49.977Z,30.80
2023-02-21T02:59:21.278Z,31.55
2023-02-21T03:01:59.607Z,31.65
2023-02-21T03:05:01.791Z,31.98
2023-02-21T03:10:14.100Z,28.27
2023-02-21T03:12:48.716Z,27.90
2023-02-21T03:15:20.401Z,27.85
2023-02-21T03:17:53.800Z,28.23
2023-02-21T03:20:22.210Z,27.10
2023-02-21T03:22:52.314Z,27.50
2023-02-21T03:25:22.446Z,28.48
2023-02-21T03:27:51.125Z,28.85
2023-02-21T03:30:22.953Z,28.77
2023-02-21T03:32:52.685Z,27.20
2023-02-21T03:35:21.924Z,27.70
2023-02-21T03:37:52.539Z,28.83
2023-02-21T03:40:24.835Z,29.63
2023-02-21T03:42:53.484Z,28.27
2023-02-21T03:45:20.702Z,31.67
2023-02-21T03:48:17.673Z,28.00
2023-02-21T03:50:50.613Z,28.30
2023-02-21T03:53:19.939Z,28.45
2023-02-21T03:55:46.871Z,28.70
2023-02-21T03:58:19.046Z,29.73
2023-02-21T04:00:45.807Z,28.60
2023-02-21T04:03:13.530Z,27.80
2023-02-21T04:05:55.781Z,27.17
2023-02-21T04:08:23.897Z,28.50
2023-02-21T04:10:52.660Z,28.73
2023-02-21T04:13:22.164Z,30.00
2023-02-21T04:15:49.921Z,27.42
2023-02-21T04:18:16.961Z,28.40
2023-02-21T04:20:44.779Z,28.52
2023-02-21T04:23:17.292Z,26.77
2023-02-21T04:25:45.435Z,28.92
2023-02-21T04:28:16.548Z,27.63
2023-02-21T04:30:43.187Z,29.02
2023-02-21T04:33:09.822Z,27.27
2023-02-21T04:35:36.455Z,27.30
2023-02-21T04:38:10.544Z,27.92
2023-02-21T04:40:37.197Z,28.45
2023-02-21T04:43:05.124Z,27.52
2023-02-21T04:45:31.816Z,28.98
2023-02-21T04:47:58.402Z,27.35
2023-02-21T04:50:24.963Z,27.88
2023-02-21T04:52:51.595Z,26.42
2023-02-21T04:55:18.202Z,26.83
2023-02-21T04:57:44.855Z,27.58
2023-02-21T05:00:15.282Z,26.33
2023-02-21T05:02:42.743Z,28.05
2023-02-21T05:05:10.118Z,27.17
2023-02-21T05:07:36.826Z,26.17
2023-02-21T05:10:03.972Z,26.30
2023-02-21T05:12:31.143Z,26.48
2023-02-21T05:14:57.836Z,27.25
2023-02-21T05:17:25.868Z,27.88
2023-02-21T05:19:52.545Z,27.52
2023-02-21T05:22:19.201Z,28.17
2023-02-21T05:24:46.124Z,27.98
2023-02-21T05:27:13.075Z,28.67
2023-02-21T05:29:39.616Z,28.17
2023-02-21T05:32:06.214Z,24.67
2023-02-21T05:34:34.157Z,28.25
2023-02-21T05:37:00.870Z,26.00
2023-02-21T05:39:27.496Z,28.60
2023-02-21T05:41:54.222Z,27.25
2023-02-21T05:44:20.899Z,26.20
2023-02-21T05:46:47.459Z,26.75
2023-02-21T05:49:15.069Z,26.70
2023-02-21T05:51:43.741Z,25.73
2023-02-21T05:54:15.084Z,25.42
2023-02-21T05:56:43.767Z,26.20
2023-02-21T05:59:11.196Z,25.33
2023-02-21T06:01:38.112Z,25.08
2023-02-21T06:04:05.443Z,25.95
2023-02-21T06:06:32.106Z,25.35
2023-02-21T06:09:00.671Z,27.40
2023-02-21T06:11:29.796Z,26.67
2023-02-21T06:13:57.954Z,25.50
2023-02-21T06:16:25.422Z,24.25
2023-02-21T06:18:52.852Z,24.58
2023-02-21T06:21:20.182Z,25.02
2023-02-21T06:23:47.447Z,23.88
2023-02-21T06:26:17.021Z,24.85
2023-02-21T06:28:43.612Z,23.95
2023-02-21T06:31:10.792Z,25.33
2023-02-21T06:33:37.444Z,24.63
2023-02-21T06:36:05.310Z,26.98
2023-02-21T06:38:32.061Z,25.85
2023-02-21T06:40:58.680Z,25.88
2023-02-21T06:43:27.060Z,26.55
2023-02-21T06:45:53.891Z,25.85
2023-02-21T06:48:20.490Z,27.08
2023-02-21T06:50:47.107Z,26.92
2023-02-21T06:53:13.751Z,26.27
2023-02-21T06:55:40.364Z,25.75
2023-02-21T06:58:06.966Z,25.95
2023-02-21T07:00:34.944Z,25.92
2023-02-21T07:03:01.515Z,25.20
2023-02-21T07:05:28.316Z,23.92
2023-02-21T07:07:54.937Z,23.35
2023-02-21T07:10:21.583Z,23.02
2023-02-21T07:12:48.196Z,23.65
2023-02-21T07:15:14.803Z,20.55
2023-02-21T07:17:42.721Z,21.83
2023-02-21T07:20:10.577Z,20.90
2023-02-21T07:22:37.185Z,20.38
2023-02-21T07:25:04.323Z,20.17
2023-02-21T07:27:30.879Z,19.92
2023-02-21T07:29:57.570Z,21.13
2023-02-21T07:34:50.994Z,18.90
2023-02-21T07:37:17.691Z,19.80
2023-02-21T07:39:44.295Z,18.27
2023-02-21T07:42:13.324Z,19.50
2023-02-21T07:44:45.149Z,18.42
2023-02-21T07:47:11.800Z,19.10
2023-02-21T07:49:38.709Z,18.92
2023-02-21T07:52:07.572Z,18.67
2023-02-21T07:54:34.204Z,18.70
2023-02-21T07:57:00.785Z,19.08
2023-02-21T07:59:27.387Z,16.55
2023-02-21T08:01:53.982Z,16.25
2023-02-21T08:04:20.681Z,17.10
2023-02-21T08:06:47.254Z,17.17
2023-02-21T08:09:15.202Z,17.40
2023-02-21T08:11:41.772Z,15.82
2023-02-21T08:14:08.370Z,17.55
2023-02-21T08:16:35.135Z,17.38
2023-02-21T08:19:01.802Z,16.05
2023-02-21T08:21:28.380Z,15.73
2023-02-21T08:23:55.306Z,16.17
2023-02-21T08:26:23.246Z,15.70
2023-02-21T08:28:49.917Z,15.00
2023-02-21T08:31:16.925Z,14.60
2023-02-21T08:33:44.581Z,14.38
2023-02-21T08:36:11.388Z,14.00
2023-02-21T08:38:38.608Z,13.80
2023-02-21T08:41:05.916Z,13.65
2023-02-21T08:43:33.916Z,14.38
2023-02-21T08:46:00.508Z,13.95
2023-02-21T08:48:27.252Z,12.90
2023-02-21T08:50:54.020Z,13.15
2023-02-21T08:53:20.638Z,14.52
2023-02-21T08:55:47.272Z,12.98
2023-02-21T08:58:14.019Z,13.95
2023-02-21T09:00:41.939Z,13.73
2023-02-21T09:03:08.620Z,12.82
2023-02-21T09:05:35.223Z,13.50
2023-02-21T09:08:01.926Z,14.73
2023-02-21T09:10:30.616Z,14.05
2023-02-21T09:12:57.424Z,13.65
2023-02-21T09:15:24.044Z,14.18
2023-02-21T09:17:52.419Z,13.43
2023-02-21T09:20:21.131Z,14.55
2023-02-21T09:22:48.008Z,13.68
2023-02-21T09:25:17.025Z,13.13
2023-02-21T09:27:43.782Z,12.85
2023-02-21T09:30:14.538Z,12.50
2023-02-21T09:32:41.597Z,13.25
2023-02-21T09:35:10.711Z,12.70
2023-02-21T09:37:38.399Z,12.10
2023-02-21T09:40:07.235Z,12.25
2023-02-21T09:42:34.082Z,12.13
2023-02-21T09:45:01.744Z,11.85
2023-02-21T09:47:33.228Z,12.88
2023-02-21T09:50:02.987Z,12.32
2023-02-21T09:52:35.098Z,12.65
2023-02-21T09:55:07.083Z,12.93
2023-02-21T09:57:33.619Z,12.20
2023-02-21T10:00:00.322Z,13.00
2023-02-21T10:02:43.296Z,10.88
2023-02-21T10:05:21.244Z,10.77
2023-02-21T10:07:56.518Z,11.50
2023-02-21T10:10:30.785Z,10.88
2023-02-21T10:13:04.558Z,9.85
2023-02-21T10:15:45.437Z,9.63
2023-02-21T10:18:25.525Z,9.07
2023-02-21T10:20:54.083Z,10.20
2023-02-21T10:23:27.385Z,10.25
2023-02-21T10:25:57.943Z,10.20
2023-02-21T10:28:25.771Z,9.80
2023-02-21T10:30:57.335Z,10.07
2023-02-21T10:33:24.476Z,9.38
2023-02-21T10:35:51.378Z,9.50
2023-02-21T10:38:24.916Z,9.38
2023-02-21T10:40:55.670Z,10.00
2023-02-21T10:43:28.257Z,9.38
2023-02-21T10:48:27.665Z,8.15
2023-02-21T10:51:06.854Z,8.27
2023-02-21T10:53:37.083Z,7.78
2023-02-21T10:56:25.580Z,8.77
2023-02-21T10:58:55.947Z,8.10
2023-02-21T11:01:32.302Z,7.22
2023-02-21T11:04:01.067Z,7.05
2023-02-21T11:06:34.095Z,7.63
2023-02-21T11:09:22.916Z,7.03
2023-02-21T11:12:00.645Z,7.07
2023-02-21T11:14:27.331Z,7.25
2023-02-21T11:17:16.011Z,7.75
2023-02-21T11:19:49.060Z,7.50
2023-02-21T11:22:17.591Z,7.10
2023-02-21T11:24:58.952Z,7.57
2023-02-21T11:27:27.775Z,7.55
2023-02-21T11:29:55.161Z,7.78
2023-02-21T11:32:27.216Z,7.03
2023-02-21T11:35:02.580Z,6.15
2023-02-21T11:37:29.430Z,5.97
2023-02-21T11:39:57.354Z,6.68
2023-02-21T11:42:27.069Z,6.95
2023-02-21T11:45:11.416Z,6.55
2023-02-21T11:47:43.351Z,6.15
2023-02-21T11:50:12.796Z,6.45
2023-02-21T11:52:46.070Z,6.32
2023-02-21T11:55:17.217Z,6.38
2023-02-21T11:57:52.016Z,6.55
2023-02-21T12:00:28.121Z,6.72
2023-02-21T12:03:13.631Z,6.03
2023-02-21T12:05:55.322Z,7.28
2023-02-21T12:08:36.806Z,7.32
2023-02-21T12:11:31.236Z,6.85
2023-02-21T12:14:21.310Z,6.20
2023-02-21T12:16:58.557Z,6.65
2023-02-21T12:19:39.528Z,6.28
2023-02-21T12:22:16.722Z,6.60
2023-02-21T12:24:59.059Z,8.18
2023-02-21T12:27:40.217Z,7.60
2023-02-21T12:30:21.690Z,8.73
2023-02-21T12:32:50.497Z,7.75
2023-02-21T12:35:45.213Z,7.68
2023-02-21T12:38:18.989Z,6.68
2023-02-21T12:40:54.321Z,7.00
2023-02-21T12:43:36.524Z,7.80
2023-02-21T12:46:11.493Z,6.85
2023-02-21T12:48:44.135Z,6.90
2023-02-21T12:53:43.598Z,6.45
2023-02-21T12:56:15.524Z,7.40
2023-02-21T12:58:48.001Z,7.38
2023-02-21T13:03:52.904Z,6.20
2023-02-21T13:06:23.637Z,7.18
2023-02-21T13:09:00.478Z,7.35
2023-02-21T13:11:32.027Z,7.78
2023-02-21T13:14:00.753Z,7.10
2023-02-21T13:16:27.759Z,7.00
2023-02-21T13:18:59.415Z,7.03
2023-02-21T13:21:42.256Z,7.57
2023-02-21T13:24:15.336Z,6.72
2023-02-21T13:26:57.336Z,6.97
2023-02-21T13:29:28.992Z,7.00
2023-02-21T13:32:00.697Z,7.43
2023-02-21T13:34:29.859Z,7.60
2023-02-21T13:37:02.522Z,7.25
2023-02-21T13:39:31.857Z,7.82
2023-02-21T13:42:04.451Z,7.30
2023-02-21T13:44:35.087Z,8.13
2023-02-21T13:47:14.512Z,8.18
2023-02-21T13:49:50.315Z,7.35
2023-02-21T13:52:42.672Z,7.72
2023-02-21T13:55:27.594Z,8.43
2023-02-21T13:58:43.271Z,8.82
2023-02-21T14:01:46.374Z,8.68
2023-02-21T14:06:59.928Z,9.20
2023-02-21T14:09:26.678Z,9.82
2023-02-21T14:11:53.637Z,10.82
2023-02-21T14:14:25.714Z,10.23
2023-02-21T14:16:58.168Z,10.88
2023-02-21T14:21:58.887Z,9.93
2023-02-21T14:24:30.015Z,9.90
2023-02-21T14:27:01.748Z,10.70
2023-02-21T14:29:32.834Z,10.60
2023-02-21T14:32:32.177Z,11.02
2023-02-21T14:34:59.672Z,9.60
2023-02-21T14:37:34.010Z,10.85
2023-02-21T14:40:24.091Z,10.85
2023-02-21T14:43:04.202Z,10.70
2023-02-21T14:45:53.452Z,10.13
2023-02-21T14:48:36.975Z,10.45
2023-02-21T14:51:33.292Z,9.60
2023-02-21T14:54:37.839Z,10.13
2023-02-21T14:57:39.564Z,10.13
2023-02-21T15:00:18.235Z,13.02
2023-02-21T15:02:52.639Z,10.82
2023-02-21T15:05:23.491Z,10.57
2023-02-21T15:08:02.650Z,9.75
2023-02-21T15:10:31.414Z,9.85
2023-02-21T15:13:00.930Z,9.65
2023-02-21T15:15:29.802Z,10.02
2023-02-21T15:18:00.971Z,10.35
2023-02-21T15:20:28.033Z,10.18
2023-02-21T15:23:00.869Z,10.45
2023-02-21T15:25:27.528Z,9.70
2023-02-21T15:28:04.445Z,9.95
2023-02-21T15:30:34.258Z,8.90
2023-02-21T15:33:07.600Z,8.48
2023-02-21T15:35:36.774Z,9.32
2023-02-21T15:38:16.836Z,8.95
2023-02-21T15:40:44.340Z,9.13
2023-02-21T15:43:24.244Z,9.25
2023-02-21T15:45:53.623Z,9.18
2023-02-21T15:48:20.852Z,9.27
2023-02-21T15:50:48.860Z,9.68
2023-02-21T15:53:19.114Z,9.98
2023-02-21T15:55:47.231Z,9.02
2023-02-21T15:58:21.869Z,10.38
2023-02-21T16:00:49.758Z,9.85
2023-02-21T16:03:34.684Z,10.23
2023-02-21T16:06:18.409Z,9.68
2023-02-21T16:08:54.474Z,10.35
2023-02-21T16:11:21.312Z,10.48
2023-02-21T16:13:49.343Z,11.02
2023-02-21T16:16:16.166Z,11.82
2023-02-21T16:18:42.777Z,10.52
2023-02-21T16:21:29.052Z,10.88
2023-02-21T16:23:55.975Z,11.20
2023-02-21T16:26:24.653Z,11.02
2023-02-21T16:28:52.866Z,10.75
2023-02-21T16:31:25.725Z,11.32
2023-02-21T16:33:52.451Z,10.25
2023-02-21T16:36:23.755Z,10.15
2023-02-21T16:38:50.392Z,10.18
2023-02-21T16:41:17.283Z,10.77
2023-02-21T16:43:44.119Z,10.60
2023-02-21T16:46:13.452Z,10.68
2023-02-21T16:48:40.083Z,10.57
2023-02-21T16:51:12.145Z,10.25
2023-02-21T16:53:38.999Z,10.75
2023-02-21T16:56:06.576Z,11.30
2023-02-21T16:58:36.950Z,11.60
2023-02-21T17:01:06.062Z,11.15
2023-02-21T17:03:34.152Z,11.85
2023-02-21T17:06:01.207Z,12.38
2023-02-21T17:08:28.015Z,13.25
2023-02-21T17:10:55.811Z,13.27
2023-02-21T17:13:22.402Z,13.10
2023-02-21T17:15:49.040Z,13.65
2023-02-21T17:18:15.863Z,13.38
2023-02-21T17:20:43.879Z,12.43
2023-02-21T17:23:10.629Z,13.85
2023-02-21T17:25:37.333Z,14.00
2023-02-21T17:28:04.181Z,13.63
2023-02-21T17:30:31.027Z,14.45
2023-02-21T17:32:57.624Z,13.98
2023-02-21T17:35:24.197Z,13.80
2023-02-21T17:37:52.206Z,14.02
2023-02-21T17:40:20.562Z,13.57
2023-02-21T17:42:47.935Z,14.48
2023-02-21T17:45:17.324Z,14.00
2023-02-21T17:47:43.881Z,15.00
2023-02-21T17:50:10.924Z,15.90
2023-02-21T17:52:37.460Z,15.88
2023-02-21T17:55:06.662Z,14.43
2023-02-21T17:57:34.179Z,16.05
2023-02-21T18:00:00.827Z,16.92
2023-02-21T18:02:27.411Z,17.42
2023-02-21T18:04:54.165Z,16.50
2023-02-21T18:07:20.794Z,17.08
2023-02-21T18:09:47.586Z,16.75
2023-02-21T18:12:15.633Z,17.38
2023-02-21T18:14:42.235Z,18.50
2023-02-21T18:17:08.748Z,17.23
2023-02-21T18:19:35.906Z,17.02
2023-02-21T18:22:02.493Z,16.85
2023-02-21T18:24:29.042Z,16.17
2023-02-21T18:26:55.805Z,15.43
2023-02-21T18:29:23.892Z,16.60
2023-02-21T18:31:51.921Z,17.75
2023-02-21T18:34:18.621Z,16.23
2023-02-21T18:36:48.630Z,17.27
2023-02-21T18:39:15.674Z,17.75
2023-02-21T18:41:42.306Z,17.83
2023-02-21T18:44:08.868Z,17.55
2023-02-21T18:46:36.864Z,18.75
2023-02-21T18:49:04.488Z,18.50
2023-02-21T18:51:34.798Z,17.48
2023-02-21T18:54:02.293Z,18.50
2023-02-21T18:56:29.077Z,17.45
2023-02-21T18:58:56.231Z,17.85
2023-02-21T19:01:23.412Z,17.83
2023-02-21T19:03:51.645Z,18.33
2023-02-21T19:06:21.101Z,18.30
2023-02-21T19:08:47.794Z,18.70
2023-02-21T19:11:14.749Z,18.42
2023-02-21T19:13:41.881Z,18.38
2023-02-21T19:16:08.649Z,18.48
2023-02-21T19:18:35.472Z,18.85
2023-02-21T19:21:04.907Z,19.38
2023-02-21T19:23:32.512Z,18.38
2023-02-21T19:25:59.824Z,19.42
2023-02-21T19:28:26.562Z,18.33
2023-02-21T19:30:53.379Z,18.38
2023-02-21T19:33:20.139Z,18.98
2023-02-21T19:35:46.884Z,19.48
2023-02-21T19:38:15.113Z,19.60
2023-02-21T19:40:42.270Z,19.20
2023-02-21T19:43:09.138Z,19.73
2023-02-21T19:45:35.976Z,19.23
2023-02-21T19:48:03.002Z,19.88
2023-02-21T19:50:30.235Z,19.33
2023-02-21T19:52:58.620Z,20.75
2023-02-21T19:55:29.774Z,20.65
2023-02-21T19:57:58.366Z,19.33
2023-02-21T20:00:25.987Z,19.60
2023-02-21T20:02:53.464Z,21.45
2023-02-21T20:05:20.659Z,20.65
2023-02-21T20:07:47.322Z,20.20
2023-02-21T20:10:16.074Z,21.55
2023-02-21T20:12:45.320Z,22.13
2023-02-21T20:15:12.270Z,21.13
2023-02-21T20:17:39.346Z,21.13
2023-02-21T20:20:06.723Z,22.20
2023-02-21T20:22:35.976Z,22.08
2023-02-21T20:25:02.919Z,21.83
2023-02-21T20:27:29.917Z,21.90
2023-02-21T20:29:58.225Z,22.17
2023-02-21T20:32:25.020Z,22.08
2023-02-21T20:34:51.756Z,22.52
2023-02-21T20:37:18.469Z,22.42
2023-02-21T20:39:48.138Z,23.85
2023-02-21T20:42:15.864Z,23.42
2023-02-21T20:44:42.679Z,22.27
2023-02-21T20:47:11.174Z,23.55
2023-02-21T20:49:38.528Z,22.58
2023-02-21T20:52:05.471Z,24.10
2023-02-21T20:54:32.184Z,23.67
2023-02-21T20:56:59.290Z,23.38
2023-02-21T20:59:28.074Z,22.67
2023-02-21T21:01:55.762Z,23.63
2023-02-21T21:04:26.275Z,24.17
2023-02-21T21:06:55.153Z,25.08
2023-02-21T21:09:22.260Z,24.33
2023-02-21T21:11:49.274Z,24.52
2023-02-21T21:14:16.479Z,24.70
2023-02-21T21:16:43.651Z,24.13
2023-02-21T21:19:10.419Z,23.77
2023-02-21T21:21:38.637Z,22.73
2023-02-21T21:24:06.325Z,23.10
2023-02-21T21:26:33.361Z,23.38
2023-02-21T21:29:00.464Z,23.85
2023-02-21T21:31:27.283Z,23.20
2023-02-21T21:33:53.963Z,23.67
2023-02-21T21:36:20.745Z,23.95
2023-02-21T21:38:48.944Z,23.90
2023-02-21T21:41:15.961Z,22.83
2023-02-21T21:43:45.328Z,23.52
2023-02-21T21:46:14.020Z,24.30
2023-02-21T21:48:43.001Z,24.65
2023-02-21T21:51:10.488Z,24.33
2023-02-21T21:53:37.971Z,24.95
2023-02-21T21:56:06.845Z,24.92
2023-02-21T21:58:36.231Z,24.80
2023-02-21T22:01:03.658Z,24.88
2023-02-21T22:03:30.610Z,26.73
2023-02-21T22:05:57.452Z,25.92
2023-02-21T22:08:24.773Z,26.70
2023-02-21T22:10:51.917Z,26.77
2023-02-21T22:13:20.692Z,27.60
2023-02-21T22:15:48.232Z,27.80
2023-02-21T22:18:18.428Z,29.05
2023-02-21T22:20:45.301Z,29.00
2023-02-21T22:23:12.182Z,28.85
2023-02-21T22:25:40.094Z,29.88
2023-02-21T22:28:11.526Z,30.70
2023-02-21T22:30:40.953Z,31.55
2023-02-21T22:33:09.901Z,30.45
2023-02-21T22:35:36.700Z,32.92
2023-02-21T22:38:03.460Z,31.75
2023-02-21T22:40:31.896Z,32.72
2023-02-21T22:43:02.302Z,32.05
2023-02-21T22:45:30.325Z,32.05
2023-02-21T22:47:59.699Z,31.15
2023-02-21T22:50:27.004Z,32.88
2023-02-21T22:52:56.239Z,31.85
2023-02-21T22:55:24.081Z,32.72
2023-02-21T22:57:52.284Z,30.13
2023-02-21T23:00:21.696Z,32.10
2023-02-21T23:02:49.826Z,32.25
2023-02-21T23:05:19.811Z,31.70
2023-02-21T23:07:47.165Z,31.45
2023-02-21T23:10:16.433Z,30.10
2023-02-21T23:12:45.343Z,29.23
2023-02-21T23:15:15.026Z,28.50
2023-02-21T23:17:43.515Z,26.90
2023-02-21T23:20:12.743Z,27.33
2023-02-21T23:22:42.351Z,26.73
2023-02-21T23:25:14.195Z,26.60
2023-02-21T23:27:41.329Z,28.90
2023-02-21T23:30:09.501Z,31.25
2023-02-21T23:32:36.686Z,29.48
2023-02-21T23:35:03.805Z,29.05
2023-02-21T23:37:31.740Z,30.13
2023-02-21T23:39:59.894Z,29.65
2023-02-21T23:42:26.844Z,30.25
2023-02-21T23:44:53.462Z,31.23
2023-02-21T23:47:21.895Z,29.80
2023-02-21T23:49:48.800Z,29.95
2023-02-21T23:52:15.694Z,31.42
2023-02-21T23:54:43.185Z,31.35
2023-02-21T23:57:13.188Z,31.45
2023-02-21T23:59:40.802Z,31.75
